createdAt,value
2018-06-20T00:00:09.829Z,8.00
2018-06-20T00:01:53.561Z,8.20
2018-06-20T00:03:37.646Z,7.80
2018-06-20T00:05:21.204Z,9.50
2018-06-20T00:07:05.160Z,6.20
2018-06-20T00:08:53.910Z,8.00
2018-06-20T00:10:37.467Z,8.00
2018-06-20T00:12:21.193Z,9.00
2018-06-20T00:14:04.888Z,7.00
2018-06-20T00:15:48.848Z,7.00
2018-06-20T00:17:32.737Z,8.60
2018-06-20T00:19:16.850Z,6.40
2018-06-20T00:21:00.651Z,7.50
2018-06-20T00:22:44.481Z,7.40
2018-06-20T00:24:28.499Z,8.40
2018-06-20T00:26:12.339Z,8.40
2018-06-20T00:27:55.777Z,8.60
2018-06-20T00:29:39.771Z,7.20
2018-06-20T00:31:23.514Z,9.50
2018-06-20T00:33:07.013Z,7.40
2018-06-20T00:34:50.597Z,8.80
2018-06-20T00:36:34.334Z,8.50
2018-06-20T00:38:17.878Z,11.40
2018-06-20T00:40:01.860Z,7.60
2018-06-20T00:41:45.605Z,9.25
2018-06-20T00:43:29.238Z,7.40
2018-06-20T00:45:12.976Z,6.20
2018-06-20T00:46:56.406Z,9.20
2018-06-20T00:48:39.872Z,7.80
2018-06-20T00:50:23.329Z,8.50
2018-06-20T00:52:06.757Z,8.80
2018-06-20T00:53:50.488Z,8.20
2018-06-20T00:55:45.567Z,8.80
2018-06-20T00:57:29.585Z,8.00
2018-06-20T00:59:13.487Z,8.60
2018-06-20T01:00:57.618Z,8.00
2018-06-20T01:02:42.016Z,8.80
2018-06-20T01:04:25.839Z,6.40
2018-06-20T01:06:09.901Z,7.50
2018-06-20T01:07:53.606Z,9.40
2018-06-20T01:09:37.412Z,9.00
2018-06-20T01:11:21.679Z,7.40
2018-06-20T01:13:05.507Z,7.80
2018-06-20T01:14:49.546Z,8.40
2018-06-20T01:16:32.997Z,7.20
2018-06-20T01:18:16.531Z,7.00
2018-06-20T01:20:00.209Z,6.40
2018-06-20T01:21:43.837Z,7.50
2018-06-20T01:23:27.285Z,8.00
2018-06-20T01:25:11.078Z,7.80
2018-06-20T01:26:55.094Z,6.60
2018-06-20T01:28:38.760Z,8.80
2018-06-20T01:30:22.763Z,7.00
2018-06-20T01:32:06.638Z,8.40
2018-06-20T01:33:50.155Z,6.60
2018-06-20T01:35:33.727Z,7.40
2018-06-20T01:37:17.433Z,8.40
2018-06-20T01:39:01.792Z,9.40
2018-06-20T01:40:45.593Z,8.00
2018-06-20T01:42:30.007Z,6.60
2018-06-20T01:44:13.690Z,8.20
2018-06-20T01:45:57.119Z,8.60
2018-06-20T01:47:40.502Z,8.60
2018-06-20T01:49:23.981Z,6.60
2018-06-20T01:51:08.113Z,9.00
2018-06-20T01:52:51.700Z,6.80
2018-06-20T01:54:35.169Z,10.60
2018-06-20T01:56:19.007Z,8.00
2018-06-20T01:58:02.531Z,6.80
2018-06-20T01:59:46.169Z,7.00
2018-06-20T02:01:29.795Z,5.75
2018-06-20T02:03:13.210Z,8.00
2018-06-20T02:04:56.682Z,7.20
2018-06-20T02:06:40.112Z,9.00
2018-06-20T02:08:23.562Z,7.40
2018-06-20T02:10:07.067Z,8.00
2018-06-20T02:11:50.750Z,6.60
2018-06-20T02:13:34.568Z,8.00
2018-06-20T02:15:18.172Z,6.25
2018-06-20T02:17:01.685Z,7.40
2018-06-20T02:18:45.116Z,7.00
2018-06-20T02:20:28.609Z,6.40
2018-06-20T02:22:12.312Z,9.40
2018-06-20T02:23:55.808Z,9.60
2018-06-20T02:25:39.269Z,7.50
2018-06-20T02:27:23.005Z,6.80
2018-06-20T02:29:06.656Z,9.00
2018-06-20T02:30:50.266Z,7.20
2018-06-20T02:32:33.957Z,6.40
2018-06-20T02:34:17.416Z,9.40
2018-06-20T02:36:05.150Z,7.00
2018-06-20T02:37:48.729Z,6.00
2018-06-20T02:39:32.189Z,8.20
2018-06-20T02:41:15.662Z,8.50
2018-06-20T02:42:59.147Z,7.00
2018-06-20T02:44:42.834Z,7.40
2018-06-20T02:46:26.253Z,8.00
2018-06-20T02:48:10.040Z,9.20
2018-06-20T02:49:53.462Z,6.80
2018-06-20T02:51:36.949Z,8.60
2018-06-20T02:53:20.415Z,8.40
2018-06-20T02:55:04.008Z,7.80
2018-06-20T02:56:47.551Z,8.40
2018-06-20T02:58:30.974Z,9.00
2018-06-20T03:00:14.444Z,9.00
2018-06-20T03:01:58.050Z,8.40
2018-06-20T03:03:42.025Z,9.00
2018-06-20T03:05:25.528Z,8.60
2018-06-20T03:07:08.956Z,7.80
2018-06-20T03:08:57.569Z,7.40
2018-06-20T03:10:41.038Z,8.50
2018-06-20T03:12:24.506Z,7.60
2018-06-20T03:14:08.368Z,7.00
2018-06-20T03:15:51.836Z,8.00
2018-06-20T03:17:35.313Z,10.40
2018-06-20T03:19:18.802Z,7.60
2018-06-20T03:21:02.317Z,9.50
2018-06-20T03:22:45.732Z,8.40
2018-06-20T03:24:29.496Z,7.00
2018-06-20T03:26:12.983Z,7.00
2018-06-20T03:27:56.602Z,10.60
2018-06-20T03:29:40.226Z,7.20
2018-06-20T03:31:23.728Z,7.00
2018-06-20T03:33:07.181Z,7.60
2018-06-20T03:34:50.616Z,8.80
2018-06-20T03:36:34.070Z,8.00
2018-06-20T03:38:18.667Z,9.40
2018-06-20T03:40:02.262Z,8.60
2018-06-20T03:41:45.826Z,7.00
2018-06-20T03:43:29.267Z,7.60
2018-06-20T03:45:12.932Z,11.20
2018-06-20T03:46:58.410Z,9.00
2018-06-20T03:48:41.932Z,9.00
2018-06-20T03:50:25.578Z,8.00
2018-06-20T03:52:09.092Z,8.00
2018-06-20T03:53:52.635Z,8.00
2018-06-20T03:55:36.491Z,8.00
2018-06-20T03:57:19.923Z,7.60
2018-06-20T03:59:03.351Z,11.00
2018-06-20T04:00:46.825Z,8.20
2018-06-20T04:02:30.402Z,9.00
2018-06-20T04:04:14.026Z,8.80
2018-06-20T04:05:57.462Z,8.50
2018-06-20T04:07:41.282Z,8.20
2018-06-20T04:09:24.889Z,9.60
2018-06-20T04:11:08.444Z,9.00
2018-06-20T04:12:51.897Z,9.20
2018-06-20T04:14:35.326Z,9.80
2018-06-20T04:16:18.753Z,9.00
2018-06-20T04:18:02.200Z,8.60
2018-06-20T04:19:45.652Z,9.00
2018-06-20T04:21:30.006Z,9.80
2018-06-20T04:23:13.507Z,8.00
2018-06-20T04:24:56.922Z,8.20
2018-06-20T04:26:40.438Z,8.75
2018-06-20T04:28:23.897Z,10.00
2018-06-20T04:30:07.331Z,10.60
2018-06-20T04:31:50.805Z,8.40
2018-06-20T04:33:35.206Z,8.40
2018-06-20T04:35:18.939Z,8.20
2018-06-20T04:37:02.585Z,7.80
2018-06-20T04:38:46.211Z,10.80
2018-06-20T04:40:29.840Z,9.40
2018-06-20T04:42:13.293Z,7.20
2018-06-20T04:43:56.700Z,10.40
2018-06-20T04:45:40.114Z,10.00
2018-06-20T04:47:23.545Z,9.00
2018-06-20T04:49:07.052Z,9.00
2018-06-20T04:50:50.574Z,7.75
2018-06-20T04:52:34.004Z,9.00
2018-06-20T04:54:17.555Z,9.80
2018-06-20T04:56:01.045Z,9.00
2018-06-20T04:57:44.598Z,10.00
2018-06-20T04:59:28.024Z,8.60
2018-06-20T05:01:12.428Z,10.00
2018-06-20T05:02:55.917Z,9.60
2018-06-20T05:04:39.425Z,11.00
2018-06-20T05:06:23.058Z,10.40
2018-06-20T05:08:06.682Z,9.80
2018-06-20T05:09:50.133Z,10.20
2018-06-20T05:11:33.682Z,10.75
2018-06-20T05:13:17.106Z,7.60
2018-06-20T05:15:00.617Z,10.00
2018-06-20T05:16:44.321Z,9.50
2018-06-20T05:18:27.726Z,9.20
2018-06-20T05:20:11.786Z,10.00
2018-06-20T05:21:56.311Z,11.60
2018-06-20T05:23:39.775Z,9.60
2018-06-20T05:25:25.433Z,10.25
2018-06-20T05:27:08.896Z,10.60
2018-06-20T05:28:52.304Z,10.40
2018-06-20T05:30:35.761Z,9.20
2018-06-20T05:32:19.217Z,9.20
2018-06-20T05:34:02.713Z,9.00
2018-06-20T05:35:46.595Z,11.60
2018-06-20T05:37:30.290Z,11.00
2018-06-20T05:39:14.107Z,11.80
2018-06-20T05:40:57.801Z,9.00
2018-06-20T05:42:41.439Z,10.40
2018-06-20T05:44:25.185Z,10.80
2018-06-20T05:46:08.613Z,10.00
2018-06-20T05:47:52.044Z,8.00
2018-06-20T05:49:35.731Z,8.80
2018-06-20T05:51:19.217Z,8.50
2018-06-20T05:53:03.094Z,11.60
2018-06-20T05:54:46.598Z,10.20
2018-06-20T05:56:30.173Z,11.80
2018-06-20T05:58:13.634Z,12.00
2018-06-20T05:59:57.021Z,12.00
2018-06-20T06:01:40.509Z,11.25
2018-06-20T06:03:24.909Z,11.00
2018-06-20T06:05:09.407Z,13.20
2018-06-20T06:06:52.993Z,11.80
2018-06-20T06:08:36.501Z,11.80
2018-06-20T06:10:19.923Z,12.00
2018-06-20T06:12:03.398Z,10.00
2018-06-20T06:13:48.366Z,14.20
2018-06-20T06:15:32.175Z,15.00
2018-06-20T06:17:15.841Z,12.80
2018-06-20T06:18:59.424Z,11.00
2018-06-20T06:20:42.990Z,12.60
2018-06-20T06:22:26.701Z,12.40
2018-06-20T06:24:10.198Z,13.80
2018-06-20T06:25:53.954Z,12.00
2018-06-20T06:27:37.619Z,9.40
2018-06-20T06:29:21.249Z,12.40
2018-06-20T06:31:04.770Z,10.80
2018-06-20T06:32:48.412Z,13.60
2018-06-20T06:34:32.232Z,13.20
2018-06-20T06:36:15.764Z,16.25
2018-06-20T06:37:59.399Z,14.60
2018-06-20T06:39:43.020Z,16.80
2018-06-20T06:41:26.658Z,15.00
2018-06-20T06:43:10.398Z,15.00
2018-06-20T06:44:54.201Z,14.00
2018-06-20T06:46:38.045Z,19.25
2018-06-20T06:48:21.495Z,19.00
2018-06-20T06:50:05.170Z,18.40
2018-06-20T06:51:48.706Z,18.60
2018-06-20T06:53:32.141Z,17.20
2018-06-20T06:55:15.962Z,15.60
2018-06-20T06:56:59.823Z,16.00
2018-06-20T06:58:43.263Z,19.00
2018-06-20T07:00:27.162Z,18.20
2018-06-20T07:02:10.710Z,16.80
2018-06-20T07:03:54.339Z,17.00
2018-06-20T07:05:38.174Z,18.20
2018-06-20T07:07:21.799Z,18.60
2018-06-20T07:09:07.633Z,17.60
2018-06-20T07:10:51.046Z,17.00
2018-06-20T07:12:34.477Z,19.20
2018-06-20T07:14:18.012Z,17.80
2018-06-20T07:16:01.815Z,17.50
2018-06-20T07:17:45.440Z,17.20
2018-06-20T07:19:29.446Z,17.00
2018-06-20T07:21:14.030Z,17.00
2018-06-20T07:22:57.936Z,18.00
2018-06-20T07:24:41.592Z,15.80
2018-06-20T07:26:25.249Z,16.00
2018-06-20T07:28:08.853Z,18.80
2018-06-20T07:29:52.796Z,16.40
2018-06-20T07:31:36.383Z,16.75
2018-06-20T07:33:20.078Z,17.80
2018-06-20T07:35:03.561Z,15.80
2018-06-20T07:36:47.012Z,17.40
2018-06-20T07:38:30.638Z,17.40
2018-06-20T07:46:56.078Z,18.75
2018-06-20T07:48:40.014Z,17.40
2018-06-20T07:50:23.674Z,18.40
2018-06-20T07:52:07.101Z,16.40
2018-06-20T07:53:50.737Z,19.40
2018-06-20T07:55:34.297Z,20.50
2018-06-20T07:57:17.764Z,17.20
2018-06-20T07:59:01.229Z,17.20
2018-06-20T08:00:50.039Z,19.00
2018-06-20T08:02:49.783Z,15.40
2018-06-20T08:04:38.578Z,16.60
2018-06-20T08:06:27.278Z,16.00
2018-06-20T08:08:16.356Z,14.80
2018-06-20T08:10:05.124Z,15.20
2018-06-20T08:11:54.405Z,17.20
2018-06-20T08:13:43.308Z,18.80
2018-06-20T08:15:31.909Z,21.80
2018-06-20T08:17:21.698Z,21.00
2018-06-20T08:19:10.508Z,18.80
2018-06-20T08:20:54.093Z,14.40
2018-06-20T08:22:37.643Z,16.00
2018-06-20T08:24:21.525Z,17.40
2018-06-20T08:26:05.248Z,14.20
2018-06-20T08:27:48.665Z,16.20
2018-06-20T08:29:32.129Z,16.40
2018-06-20T08:31:15.565Z,14.00
2018-06-20T08:32:59.446Z,14.00
2018-06-20T08:34:42.918Z,15.80
2018-06-20T08:36:26.338Z,14.25
2018-06-20T08:38:09.892Z,16.40
2018-06-20T08:39:53.378Z,13.20
2018-06-20T08:41:37.064Z,14.20
2018-06-20T08:43:20.784Z,15.00
2018-06-20T08:45:04.282Z,13.40
2018-06-20T08:46:47.708Z,18.80
2018-06-20T08:48:31.473Z,15.60
2018-06-20T08:50:15.173Z,14.20
2018-06-20T08:51:58.623Z,17.80
2018-06-20T08:53:42.009Z,14.20
2018-06-20T08:55:25.481Z,14.00
2018-06-20T08:57:08.893Z,12.00
2018-06-20T08:58:52.338Z,14.00
2018-06-20T09:00:40.953Z,13.40
2018-06-20T09:02:24.385Z,13.40
2018-06-20T09:04:13.213Z,14.00
2018-06-20T09:06:02.348Z,13.60
2018-06-20T09:07:51.325Z,14.20
2018-06-20T09:09:40.041Z,14.20
2018-06-20T09:11:28.806Z,17.25
2018-06-20T09:13:17.435Z,12.20
2018-06-20T09:15:06.294Z,13.40
2018-06-20T09:16:55.023Z,13.60
2018-06-20T09:18:43.888Z,13.20
2018-06-20T09:20:27.645Z,14.25
2018-06-20T09:22:11.121Z,11.80
2018-06-20T09:23:54.601Z,12.60
2018-06-20T09:25:38.286Z,14.20
2018-06-20T09:27:21.801Z,13.60
2018-06-20T09:29:05.257Z,13.00
2018-06-20T09:30:48.999Z,13.80
2018-06-20T09:32:32.729Z,13.80
2018-06-20T09:34:16.170Z,12.80
2018-06-20T09:35:59.677Z,13.25
2018-06-20T09:37:43.343Z,12.80
2018-06-20T09:39:26.902Z,14.80
2018-06-20T09:41:10.317Z,15.75
2018-06-20T09:42:54.196Z,11.40
2018-06-20T09:44:37.713Z,12.60
2018-06-20T09:46:21.243Z,13.00
2018-06-20T09:48:04.885Z,14.00
2018-06-20T09:49:48.407Z,14.40
2018-06-20T09:51:31.962Z,15.80
2018-06-20T09:53:15.537Z,12.80
2018-06-20T09:54:59.017Z,13.00
2018-06-20T09:56:42.737Z,13.25
2018-06-20T09:58:26.248Z,10.80
2018-06-20T10:00:15.041Z,12.80
2018-06-20T10:02:03.951Z,13.00
2018-06-20T10:03:52.632Z,10.80
2018-06-20T10:05:41.392Z,13.00
2018-06-20T10:07:30.053Z,12.40
2018-06-20T10:09:18.811Z,13.00
2018-06-20T10:11:07.582Z,12.25
2018-06-20T10:12:56.285Z,13.80
2018-06-20T10:14:39.788Z,10.40
2018-06-20T10:16:23.244Z,13.25
2018-06-20T10:18:07.029Z,12.80
2018-06-20T10:19:50.477Z,12.20
2018-06-20T10:21:34.066Z,9.60
2018-06-20T10:23:17.608Z,13.20
2018-06-20T10:25:01.304Z,12.00
2018-06-20T10:26:44.724Z,13.00
2018-06-20T10:28:28.132Z,10.80
2018-06-20T10:30:11.993Z,12.20
2018-06-20T10:31:55.470Z,10.80
2018-06-20T10:33:38.998Z,11.20
2018-06-20T10:35:23.094Z,10.60
2018-06-20T10:37:06.624Z,12.60
2018-06-20T10:38:50.206Z,12.60
2018-06-20T10:40:33.861Z,11.80
2018-06-20T10:42:17.429Z,12.80
2018-06-20T10:44:04.645Z,13.00
2018-06-20T10:45:53.412Z,16.00
2018-06-20T10:47:38.471Z,28.80
2018-06-20T10:49:21.956Z,28.20
2018-06-20T10:51:05.534Z,24.25
2018-06-20T10:52:48.989Z,27.40
2018-06-20T10:54:32.581Z,27.20
2018-06-20T10:56:20.298Z,28.25
2018-06-20T10:58:09.035Z,27.40
2018-06-20T10:59:57.922Z,26.60
2018-06-20T11:01:46.857Z,28.25
2018-06-20T11:03:35.686Z,31.80
2018-06-20T11:05:24.368Z,32.50
2018-06-20T11:07:12.781Z,32.00
2018-06-20T11:09:02.039Z,30.40
2018-06-20T11:10:50.884Z,28.00
2018-06-20T11:12:39.730Z,27.80
2018-06-20T11:14:23.646Z,24.80
2018-06-20T11:16:07.068Z,27.00
2018-06-20T11:17:50.780Z,28.00
2018-06-20T11:19:34.330Z,24.60
2018-06-20T11:21:17.983Z,23.40
2018-06-20T11:23:01.519Z,21.60
2018-06-20T11:24:44.981Z,26.00
2018-06-20T11:26:28.470Z,23.50
2018-06-20T11:28:14.873Z,21.40
2018-06-20T11:29:58.403Z,23.00
2018-06-20T11:31:41.914Z,25.60
2018-06-20T11:33:25.644Z,27.60
2018-06-20T11:35:09.164Z,30.60
2018-06-20T11:36:52.617Z,28.40
2018-06-20T11:38:36.057Z,26.40
2018-06-20T11:40:19.767Z,26.80
2018-06-20T11:42:03.293Z,26.40
2018-06-20T11:43:46.900Z,28.20
2018-06-20T11:45:35.672Z,26.25
2018-06-20T11:47:24.415Z,26.60
2018-06-20T11:49:08.154Z,26.20
2018-06-20T11:50:51.758Z,27.00
2018-06-20T11:52:40.744Z,28.00
2018-06-20T11:54:24.346Z,24.00
2018-06-20T11:56:07.415Z,24.20
2018-06-20T11:57:50.889Z,22.60
2018-06-20T11:59:39.643Z,25.20
2018-06-20T12:01:28.281Z,22.25
2018-06-20T12:05:20.841Z,24.40
2018-06-20T12:07:09.676Z,27.20
2018-06-20T12:08:58.549Z,24.60
2018-06-20T12:12:54.115Z,24.40
2018-06-20T12:14:42.877Z,23.20
2018-06-20T12:16:27.704Z,22.25
2018-06-20T12:18:16.515Z,22.40
2018-06-20T12:20:05.170Z,21.60
2018-06-20T12:21:53.976Z,26.40
2018-06-20T12:23:42.749Z,19.80
2018-06-20T12:25:31.930Z,24.50
2018-06-20T12:27:20.655Z,20.40
2018-06-20T12:29:09.984Z,20.00
2018-06-20T12:30:58.684Z,23.50
2018-06-20T12:32:47.724Z,20.80
2018-06-20T12:34:36.340Z,20.60
2018-06-20T12:36:25.352Z,23.25
2018-06-20T12:38:14.088Z,25.60
2018-06-20T12:40:20.940Z,23.80
2018-06-20T12:42:10.071Z,22.00
2018-06-20T12:43:58.764Z,21.60
2018-06-20T12:45:42.733Z,20.25
2018-06-20T12:47:32.498Z,22.20
2018-06-20T12:49:19.190Z,18.80
2018-06-20T12:51:02.901Z,22.50
2018-06-20T12:52:47.774Z,20.40
2018-06-20T12:54:31.321Z,22.40
2018-06-20T12:56:14.934Z,21.00
2018-06-20T12:57:58.390Z,21.20
2018-06-20T12:59:42.009Z,19.20
2018-06-20T13:01:25.528Z,18.25
2018-06-20T13:03:09.061Z,20.80
2018-06-20T13:04:52.553Z,27.40
2018-06-20T13:06:36.046Z,26.00
2018-06-20T13:08:19.645Z,26.60
2018-06-20T13:10:03.049Z,30.80
2018-06-20T13:11:46.770Z,29.20
2018-06-20T13:13:30.186Z,28.20
2018-06-20T13:15:14.773Z,29.80
2018-06-20T13:16:58.605Z,30.60
2018-06-20T13:18:46.845Z,28.60
2018-06-20T13:20:30.455Z,28.00
2018-06-20T13:22:14.165Z,27.80
2018-06-20T13:23:57.830Z,30.00
2018-06-20T13:25:41.284Z,27.75
2018-06-20T13:27:30.069Z,28.40
2018-06-20T13:29:14.001Z,29.60
2018-06-20T13:31:02.556Z,28.50
2018-06-20T13:32:51.316Z,25.60
2018-06-20T13:34:39.991Z,27.40
2018-06-20T13:36:28.926Z,28.00
2018-06-20T13:38:17.961Z,27.40
2018-06-20T13:40:06.719Z,27.00
2018-06-20T13:42:00.901Z,26.60
2018-06-20T13:43:49.882Z,26.80
2018-06-20T13:45:38.574Z,25.00
2018-06-20T13:47:27.268Z,26.60
2018-06-20T13:49:11.067Z,26.20
2018-06-20T13:50:54.708Z,27.25
2018-06-20T13:52:38.186Z,25.20
2018-06-20T13:54:21.641Z,26.20
2018-06-20T13:56:05.632Z,27.00
2018-06-20T13:57:49.196Z,23.40
2018-06-20T13:59:32.637Z,25.00
2018-06-20T14:01:16.353Z,24.25
2018-06-20T14:02:59.844Z,21.40
2018-06-20T14:04:43.801Z,23.40
2018-06-20T14:06:27.406Z,28.25
2018-06-20T14:08:10.905Z,24.40
2018-06-20T14:09:54.550Z,23.20
2018-06-20T14:11:38.326Z,24.50
2018-06-20T14:13:21.923Z,24.00
2018-06-20T14:15:05.377Z,23.40
2018-06-20T14:16:48.928Z,24.00
2018-06-20T14:18:32.366Z,22.60
2018-06-20T14:20:21.313Z,22.60
2018-06-20T14:22:05.767Z,20.00
2018-06-20T14:23:49.186Z,24.60
2018-06-20T14:25:33.250Z,23.00
2018-06-20T14:27:16.901Z,21.80
2018-06-20T14:29:00.356Z,23.20
2018-06-20T14:30:48.969Z,24.20
2018-06-20T14:32:37.641Z,20.80
2018-06-20T14:34:26.396Z,23.80
2018-06-20T14:36:15.297Z,21.40
2018-06-20T14:38:04.214Z,21.00
2018-06-20T14:39:53.126Z,22.00
2018-06-20T14:41:41.897Z,21.60
2018-06-20T14:43:30.608Z,23.00
2018-06-20T14:45:19.329Z,22.75
2018-06-20T14:47:02.777Z,22.00
2018-06-20T14:48:47.331Z,20.20
2018-06-20T14:50:30.878Z,23.20
2018-06-20T14:52:14.485Z,22.20
2018-06-20T14:54:00.194Z,21.00
2018-06-20T14:55:43.820Z,19.80
2018-06-20T14:57:27.627Z,18.60
2018-06-20T14:59:11.311Z,19.20
2018-06-20T15:00:55.015Z,19.60
2018-06-20T15:02:38.674Z,22.60
2018-06-20T15:04:23.121Z,21.40
2018-06-20T15:06:06.944Z,22.25
2018-06-20T15:07:51.117Z,19.80
2018-06-20T15:09:34.723Z,18.80
2018-06-20T15:11:18.398Z,18.25
2018-06-20T15:13:01.847Z,19.80
2018-06-20T15:14:45.386Z,21.20
2018-06-20T15:16:34.212Z,19.40
2018-06-20T15:18:18.349Z,19.80
2018-06-20T15:20:02.181Z,18.80
2018-06-20T15:21:45.760Z,19.75
2018-06-20T15:23:29.563Z,20.40
2018-06-20T15:25:13.029Z,19.20
2018-06-20T15:27:01.964Z,17.40
2018-06-20T15:28:50.620Z,16.60
2018-06-20T15:30:39.331Z,19.75
2018-06-20T15:32:28.310Z,18.20
2018-06-20T15:34:17.145Z,19.20
2018-06-20T15:36:05.962Z,19.00
2018-06-20T15:37:54.672Z,19.60
2018-06-20T15:39:38.093Z,21.40
2018-06-20T15:41:21.887Z,16.00
2018-06-20T15:43:05.369Z,18.00
2018-06-20T15:44:48.993Z,17.00
2018-06-20T15:46:32.586Z,19.25
2018-06-20T15:48:15.992Z,17.60
2018-06-20T15:49:59.441Z,16.20
2018-06-20T15:51:42.967Z,16.00
2018-06-20T15:53:26.416Z,17.60
2018-06-20T15:55:09.916Z,15.40
2018-06-20T15:56:53.380Z,17.40
2018-06-20T15:58:36.832Z,15.40
2018-06-20T16:00:20.285Z,17.00
2018-06-20T16:02:03.783Z,15.40
2018-06-20T16:03:47.256Z,18.00
2018-06-20T16:05:30.714Z,16.20
2018-06-20T16:07:14.188Z,17.60
2018-06-20T16:09:03.001Z,19.60
2018-06-20T16:10:46.468Z,17.60
2018-06-20T16:12:30.097Z,18.60
2018-06-20T16:14:13.917Z,17.40
2018-06-20T16:15:58.730Z,16.00
2018-06-20T16:17:42.381Z,16.20
2018-06-20T16:19:31.252Z,18.00
2018-06-20T16:21:19.974Z,17.40
2018-06-20T16:23:08.781Z,18.60
2018-06-20T16:24:57.560Z,14.40
2018-06-20T16:26:46.334Z,17.20
2018-06-20T16:28:35.119Z,17.20
2018-06-20T16:30:32.880Z,17.00
2018-06-20T16:32:16.336Z,18.40
2018-06-20T16:34:00.054Z,20.60
2018-06-20T16:35:43.847Z,16.75
2018-06-20T16:37:27.474Z,17.80
2018-06-20T16:39:10.818Z,17.80
2018-06-20T16:40:54.397Z,16.50
2018-06-20T16:42:37.934Z,18.20
2018-06-20T16:44:21.385Z,17.80
2018-06-20T16:46:04.981Z,16.60
2018-06-20T16:47:48.926Z,16.80
2018-06-20T16:49:32.478Z,16.40
2018-06-20T16:51:15.945Z,21.20
2018-06-20T16:53:00.066Z,18.40
2018-06-20T16:54:43.740Z,14.80
2018-06-20T16:56:27.282Z,16.50
2018-06-20T16:58:10.745Z,16.40
2018-06-20T16:59:54.245Z,15.80
2018-06-20T17:01:43.334Z,17.75
2018-06-20T17:03:27.486Z,16.20
2018-06-20T17:05:11.362Z,15.20
2018-06-20T17:06:54.932Z,15.80
2018-06-20T17:08:38.445Z,14.40
2018-06-20T17:10:22.635Z,14.40
2018-06-20T17:13:14.606Z,15.00
2018-06-20T17:15:03.227Z,14.60
2018-06-20T17:16:51.949Z,15.60
2018-06-20T17:18:41.110Z,15.00
2018-06-20T17:20:29.833Z,13.80
2018-06-20T17:22:18.452Z,12.00
2018-06-20T17:24:08.409Z,14.80
2018-06-20T17:25:51.846Z,14.40
2018-06-20T17:27:35.436Z,14.00
2018-06-20T17:29:19.143Z,13.80
2018-06-20T17:31:02.650Z,16.50
2018-06-20T17:32:46.201Z,13.60
2018-06-20T17:34:29.797Z,13.60
2018-06-20T17:36:13.564Z,15.00
2018-06-20T17:37:57.180Z,12.40
2018-06-20T17:39:40.833Z,16.60
2018-06-20T17:41:24.298Z,13.00
2018-06-20T17:43:08.056Z,15.20
2018-06-20T17:44:51.577Z,13.40
2018-06-20T17:46:35.053Z,15.80
2018-06-20T17:48:18.810Z,13.40
2018-06-20T17:50:02.378Z,13.20
2018-06-20T17:51:45.797Z,14.50
2018-06-20T17:53:29.290Z,16.00
2018-06-20T17:55:12.732Z,14.00
2018-06-20T17:56:56.445Z,15.40
2018-06-20T17:58:40.364Z,13.40
2018-06-20T18:00:24.414Z,14.20
2018-06-20T18:02:08.625Z,13.60
2018-06-20T18:03:52.099Z,16.00
2018-06-20T18:05:40.841Z,13.40
2018-06-20T18:07:29.741Z,13.20
2018-06-20T18:09:18.905Z,11.80
2018-06-20T18:11:07.638Z,13.25
2018-06-20T18:12:56.574Z,13.20
2018-06-20T18:14:45.177Z,14.80
2018-06-20T18:16:34.841Z,14.25
2018-06-20T18:18:18.333Z,14.80
2018-06-20T18:20:02.047Z,12.80
2018-06-20T18:21:45.513Z,14.75
2018-06-20T18:23:28.965Z,11.20
2018-06-20T18:25:12.478Z,14.75
2018-06-20T18:26:56.105Z,14.00
2018-06-20T18:28:39.976Z,13.60
2018-06-20T18:30:24.451Z,13.20
2018-06-20T18:32:08.495Z,13.80
2018-06-20T18:33:52.265Z,15.20
2018-06-20T18:35:36.057Z,13.80
2018-06-20T18:37:19.710Z,13.00
2018-06-20T18:39:03.176Z,15.20
2018-06-20T18:40:46.673Z,13.60
2018-06-20T18:42:30.340Z,11.40
2018-06-20T18:44:14.011Z,13.60
2018-06-20T18:45:57.846Z,13.75
2018-06-20T18:47:46.790Z,14.00
2018-06-20T18:49:30.329Z,12.80
2018-06-20T18:51:13.894Z,13.50
2018-06-20T18:52:57.624Z,13.20
2018-06-20T18:54:41.149Z,12.40
2018-06-20T18:56:24.957Z,12.75
2018-06-20T18:58:13.545Z,12.20
2018-06-20T19:00:02.897Z,10.80
2018-06-20T19:02:51.907Z,13.60
2018-06-20T19:04:40.958Z,11.20
2018-06-20T19:06:30.034Z,13.25
2018-06-20T19:08:18.816Z,13.80
2018-06-20T19:10:02.402Z,11.60
2018-06-20T19:11:46.382Z,13.25
2018-06-20T19:13:30.122Z,11.00
2018-06-20T19:15:14.001Z,13.00
2018-06-20T19:16:57.623Z,13.60
2018-06-20T19:18:41.181Z,10.00
2018-06-20T19:20:24.812Z,13.00
2018-06-20T19:22:08.959Z,13.20
2018-06-20T19:23:52.813Z,13.40
2018-06-20T19:25:36.265Z,13.00
2018-06-20T19:27:19.773Z,12.00
2018-06-20T19:29:03.438Z,13.20
2018-06-20T19:30:46.862Z,12.20
2018-06-20T19:32:30.623Z,12.40
2018-06-20T19:34:14.367Z,11.60
2018-06-20T19:35:58.285Z,12.60
2018-06-20T19:37:41.822Z,9.80
2018-06-20T19:39:31.218Z,14.00
2018-06-20T19:41:14.829Z,12.50
2018-06-20T19:42:58.637Z,14.20
2018-06-20T19:44:42.177Z,11.40
2018-06-20T19:46:25.782Z,12.00
2018-06-20T19:48:09.653Z,14.20
2018-06-20T19:49:53.107Z,11.80
2018-06-20T19:51:37.005Z,14.60
2018-06-20T19:53:21.220Z,12.00
2018-06-20T19:55:05.168Z,12.40
2018-06-20T19:56:49.406Z,13.40
2018-06-20T19:58:33.078Z,13.20
2018-06-20T20:00:16.582Z,14.00
2018-06-20T20:02:00.257Z,16.20
2018-06-20T20:03:43.733Z,12.60
2018-06-20T20:05:27.185Z,11.25
2018-06-20T20:07:10.892Z,15.80
2018-06-20T20:08:54.315Z,13.80
2018-06-20T20:10:37.714Z,14.40
2018-06-20T20:12:21.503Z,15.40
2018-06-20T20:14:05.042Z,14.40
2018-06-20T20:15:48.551Z,15.25
2018-06-20T20:17:32.142Z,13.40
2018-06-20T20:19:15.780Z,16.80
2018-06-20T20:20:59.485Z,17.50
2018-06-20T20:22:43.133Z,16.20
2018-06-20T20:24:26.901Z,14.80
2018-06-20T20:26:10.510Z,18.00
2018-06-20T20:27:54.146Z,16.80
2018-06-20T20:29:37.827Z,15.40
2018-06-20T20:31:22.073Z,18.50
2018-06-20T20:33:05.640Z,17.00
2018-06-20T20:34:49.197Z,17.60
2018-06-20T20:36:32.683Z,17.75
2018-06-20T20:38:16.458Z,15.20
2018-06-20T20:39:59.924Z,15.20
2018-06-20T20:41:44.608Z,14.00
2018-06-20T20:43:28.647Z,16.00
2018-06-20T20:45:12.063Z,18.00
2018-06-20T20:46:55.805Z,16.20
2018-06-20T20:48:39.634Z,15.80
2018-06-20T20:50:23.715Z,15.50
2018-06-20T20:52:07.308Z,19.00
2018-06-20T20:53:51.165Z,16.20
2018-06-20T20:55:35.090Z,16.60
2018-06-20T20:57:18.582Z,17.40
2018-06-20T20:59:02.069Z,16.80
2018-06-20T21:00:45.515Z,16.25
2018-06-20T21:02:29.186Z,15.20
2018-06-20T21:04:12.946Z,17.40
2018-06-20T21:05:56.381Z,15.00
2018-06-20T21:07:39.869Z,16.60
2018-06-20T21:09:23.581Z,17.20
2018-06-20T21:11:07.236Z,16.50
2018-06-20T21:12:51.295Z,17.80
2018-06-20T21:14:34.745Z,16.40
2018-06-20T21:16:18.969Z,16.50
2018-06-20T21:18:02.568Z,17.20
2018-06-20T21:19:46.294Z,17.80
2018-06-20T21:21:30.337Z,17.25
2018-06-20T21:23:13.800Z,17.00
2018-06-20T21:24:57.759Z,19.00
2018-06-20T21:26:41.212Z,18.40
2018-06-20T21:28:24.722Z,16.20
2018-06-20T21:30:08.480Z,17.40
2018-06-20T21:31:52.368Z,15.40
2018-06-20T21:33:36.214Z,16.40
2018-06-20T21:35:19.855Z,16.20
2018-06-20T21:37:03.290Z,18.00
2018-06-20T21:38:46.765Z,16.60
2018-06-20T21:40:30.679Z,18.00
2018-06-20T21:42:14.073Z,14.60
2018-06-20T21:43:57.560Z,17.00
2018-06-20T21:45:41.312Z,16.60
2018-06-20T21:47:25.045Z,17.00
2018-06-20T21:49:08.737Z,16.60
2018-06-20T21:50:52.628Z,15.25
2018-06-20T21:52:37.116Z,18.00
2018-06-20T21:54:20.546Z,18.20
2018-06-20T21:56:03.977Z,18.80
2018-06-20T21:57:47.594Z,16.60
2018-06-20T21:59:31.270Z,17.00
2018-06-20T22:01:14.733Z,17.60
2018-06-20T22:02:58.240Z,16.00
2018-06-20T22:04:41.959Z,17.20
2018-06-20T22:06:25.616Z,16.25
2018-06-20T22:08:09.121Z,15.80
2018-06-20T22:09:52.584Z,17.00
2018-06-20T22:11:38.963Z,15.50
2018-06-20T22:13:22.397Z,14.80
2018-06-20T22:15:05.938Z,16.60
2018-06-20T22:16:49.906Z,17.00
2018-06-20T22:18:33.488Z,15.40
2018-06-20T22:20:16.977Z,14.75
2018-06-20T22:22:00.644Z,16.00
2018-06-20T22:23:44.976Z,14.60
2018-06-20T22:25:28.704Z,16.50
2018-06-20T22:27:12.158Z,16.60
2018-06-20T22:28:55.780Z,15.00
2018-06-20T22:30:39.273Z,14.25
2018-06-20T22:32:23.027Z,15.40
2018-06-20T22:34:06.560Z,14.60
2018-06-20T22:35:51.215Z,14.25
2018-06-20T22:37:34.696Z,12.20
2018-06-20T22:39:18.143Z,14.80
2018-06-20T22:41:02.102Z,14.40
2018-06-20T22:42:45.724Z,13.40
2018-06-20T22:44:29.794Z,14.60
2018-06-20T22:46:14.413Z,15.00
2018-06-20T22:47:57.858Z,14.20
2018-06-20T22:49:41.464Z,15.40